Flight Information

DEPARTURE
SAN DIEGO, CA
Elevation:
427
Runways:
10R/28L - 3401x60 - ASPH-G
H1 - 48x48 - ASPH-G
5/23 - 3400x75 - ASPH-TRTD-E
10L/28R - 4598x150 - ASPH-G
ATIS:
126.9 858-277-3075
Clearance Delivery:
123.725
Ground:
118.22
Tower:
119.2 125.7
DESTINATION
,
Elevation:
TPA:
1000 (est.)


6752.3 NM74° True-13° Var61° HDG

Flight Plan:
(click to file on line)

1. Type
2. Aircraft Identification
3. Aircraft Type / Special Equipment
4. True Airspeed
kts
5. Departure Airport
(ICAO code)
6. Arriving Airport
(ICAO code)
7. Cruising Altitude
ft
8. Alternate Airport
(ICAO code)
9. Route of Flight
10. Remarks


00:00:00 Departure ATIS: Destination ATIS:

Clearance Limit:
Route:
Altitude: Expect in minutes
Frequency:
Transponder: (7500 Hijack / 7600 Lost Comms / 7700 Emergency)


KMYF 010753Z AUTO 00000KT 10SM CLR 14/11 A2989 RMK AO2 SLP116 T01390111 402170122
Time: 2020-04-01T07:53:00Z
1585729596
Winds: calm
Visibility: 10.0 sm
Clouds (AGL): CLR
Temperature: 13.9 C
Dew Point: 11.1 C
Pressure: 29.890747 in Hgbr


Notes:

Data extracted from FAA Digital Chart Supplement. Effective: 0901Z Thursday, Mar 26, 2020 to 0901Z Thursday, May 21, 2020
Current ATIS data is provided courtisy of PilotEdge.